Time;durP1;ratioP1;P1;durP2;ratioP2;P2;SDS_P1;SDS_P2;PMS_P1;PMS_P2;Temp;Humidity;BMP_temperature;BMP_pressure;BME280_temperature;BME280_humidity;BME280_pressure;Samples;Min_cycle;Max_cycle;Signal;HPM_P1;HPM_P2
2023/01/07 00:01:20;;;;;;;2.13;0.80;;;19.50;99.90;;;;;;5041081;28;20190;-65
2023/01/07 00:03:49;;;;;;;5.97;1.45;;;19.40;99.90;;;;;;5040183;28;20074;-66
2023/01/07 00:06:19;;;;;;;5.63;0.98;;;19.40;99.90;;;;;;5050105;28;20434;-66
2023/01/07 00:08:48;;;;;;;4.63;0.80;;;19.30;99.90;;;;;;5048747;28;20029;-66
2023/01/07 00:11:19;;;;;;;4.28;1.50;;;19.40;99.90;;;;;;5040335;28;20069;-66
2023/01/07 00:13:50;;;;;;;4.22;1.10;;;19.50;99.90;;;;;;5035146;28;20467;-69
2023/01/07 00:16:19;;;;;;;5.00;1.42;;;19.60;99.90;;;;;;5038891;28;20026;-69
2023/01/07 00:18:47;;;;;;;3.90;1.42;;;19.60;99.90;;;;;;5049021;28;20017;-68
2023/01/07 00:21:17;;;;;;;4.72;1.20;;;19.70;99.90;;;;;;5035102;28;20036;-67
2023/01/07 00:23:45;;;;;;;8.32;1.30;;;19.50;99.90;;;;;;5038417;28;20032;-68
2023/01/07 00:26:18;;;;;;;5.75;1.30;;;19.30;99.90;;;;;;5053588;28;20111;-67
2023/01/07 00:28:47;;;;;;;6.53;1.38;;;19.20;99.90;;;;;;5050385;28;20062;-67
2023/01/07 00:31:20;;;;;;;9.27;2.00;;;19.20;99.90;;;;;;5050368;28;20029;-67
2023/01/07 00:34:05;;;;;;;6.63;1.88;;;19.20;99.90;;;;;;5036835;28;20100;-67
2023/01/07 00:36:42;;;;;;;5.20;1.20;;;19.30;99.90;;;;;;5047738;28;20493;-68
2023/01/07 00:39:20;;;;;;;8.63;1.85;;;19.40;99.90;;;;;;5038188;28;20025;-68
2023/01/07 00:44:36;;;;;;;3.83;1.10;;;20.30;99.90;;;;;;5029985;28;20125;-68
2023/01/07 00:47:03;;;;;;;7.80;1.35;;;20.80;99.90;;;;;;5047641;28;20028;-68
2023/01/07 00:49:31;;;;;;;5.93;1.33;;;21.20;99.90;;;;;;5048670;28;20497;-69
2023/01/07 00:51:58;;;;;;;6.13;1.75;;;21.60;99.90;;;;;;5044902;28;20033;-69
2023/01/07 00:54:25;;;;;;;4.30;1.05;;;21.60;99.90;;;;;;5048661;28;20508;-69
2023/01/07 00:56:55;;;;;;;7.07;1.13;;;21.50;99.90;;;;;;5034735;28;20033;-67
2023/01/07 00:59:23;;;;;;;5.55;0.80;;;21.50;99.90;;;;;;5028557;28;20061;-68
2023/01/07 01:01:50;;;;;;;6.28;2.47;;;21.50;99.90;;;;;;5029953;28;20032;-68
2023/01/07 01:04:17;;;;;;;5.95;1.55;;;21.20;99.90;;;;;;5033638;28;20382;-69
2023/01/07 01:06:45;;;;;;;7.13;1.17;;;21.10;99.90;;;;;;5049823;28;20025;-69
2023/01/07 01:09:15;;;;;;;7.32;1.20;;;21.00;99.90;;;;;;5047134;28;20490;-69
2023/01/07 01:11:43;;;;;;;10.15;1.63;;;20.80;99.90;;;;;;5049392;28;20045;-70
2023/01/07 01:14:14;;;;;;;4.50;1.42;;;20.90;99.90;;;;;;5039824;28;20078;-66
2023/01/07 01:16:42;;;;;;;7.57;1.20;;;21.20;99.90;;;;;;5045105;28;20033;-68
2023/01/07 01:19:09;;;;;;;3.83;1.85;;;21.40;99.90;;;;;;5049261;28;20484;-68
2023/01/07 01:21:39;;;;;;;6.60;1.50;;;21.70;99.90;;;;;;5038042;28;20159;-66
2023/01/07 01:24:06;;;;;;;2.42;1.10;;;22.10;99.90;;;;;;5033137;28;20030;-66
2023/01/07 01:26:34;;;;;;;6.03;1.02;;;22.30;98.60;;;;;;5039113;28;20031;-66
2023/01/07 01:29:01;;;;;;;6.40;1.48;;;22.70;95.90;;;;;;5038669;28;20037;-64
2023/01/07 01:31:28;;;;;;;7.32;2.92;;;22.90;96.00;;;;;;5038147;28;20041;-63
2023/01/07 01:33:58;;;;;;;5.57;1.40;;;23.10;94.20;;;;;;5034643;28;20028;-67
2023/01/07 01:36:26;;;;;;;8.07;3.17;;;22.90;94.00;;;;;;5038185;28;20113;-69
2023/01/07 01:38:53;;;;;;;6.25;2.25;;;23.00;94.70;;;;;;5036996;28;20111;-65
2023/01/07 01:41:21;;;;;;;6.07;1.20;;;23.00;93.40;;;;;;5035956;28;20370;-71
2023/01/07 01:43:48;;;;;;;6.95;1.20;;;23.00;94.30;;;;;;5036676;28;20029;-68
2023/01/07 01:46:28;;;;;;;4.25;1.10;;;22.80;94.20;;;;;;5038239;28;20013;-71
2023/01/07 01:49:17;;;;;;;11.27;2.78;;;22.50;95.20;;;;;;5037839;28;20021;-64
2023/01/07 01:51:51;;;;;;;7.72;0.90;;;22.30;95.80;;;;;;5033298;28;20057;-67
2023/01/07 01:54:20;;;;;;;3.50;0.80;;;22.10;96.90;;;;;;5035970;28;20041;-66
2023/01/07 01:56:50;;;;;;;7.00;1.15;;;22.10;97.30;;;;;;5036617;28;20023;-64
2023/01/07 01:59:22;;;;;;;7.30;1.02;;;22.10;96.50;;;;;;5038800;28;20021;-66
2023/01/07 02:01:49;;;;;;;5.28;1.20;;;22.10;96.00;;;;;;5035331;28;20147;-66
2023/01/07 02:04:20;;;;;;;5.40;1.00;;;22.20;94.90;;;;;;5034962;28;20046;-66
2023/01/07 02:07:11;;;;;;;5.82;0.90;;;22.40;94.70;;;;;;5035638;28;20033;-65
2023/01/07 02:09:38;;;;;;;7.55;2.53;;;22.60;95.00;;;;;;5035627;28;20106;-65
2023/01/07 02:12:14;;;;;;;6.90;1.00;;;22.90;94.20;;;;;;5032743;28;20052;-65
2023/01/07 02:14:49;;;;;;;4.28;0.85;;;23.00;93.80;;;;;;5034656;28;20156;-64
2023/01/07 02:17:44;;;;;;;8.00;1.73;;;23.10;93.50;;;;;;5034007;28;20025;-64
2023/01/07 02:20:14;;;;;;;4.57;0.77;;;23.00;91.60;;;;;;5037471;28;20040;-65
2023/01/07 02:23:00;;;;;;;4.55;1.13;;;22.80;92.90;;;;;;5036398;28;20400;-64
2023/01/07 02:26:02;;;;;;;7.95;1.30;;;22.60;93.80;;;;;;5034461;28;20018;-64
2023/01/07 02:29:02;;;;;;;7.20;2.05;;;22.50;93.80;;;;;;5038523;28;20407;-64
2023/01/07 02:31:47;;;;;;;5.88;1.73;;;22.60;94.20;;;;;;5036363;28;20310;-64
2023/01/07 02:34:20;;;;;;;6.55;1.48;;;22.50;93.80;;;;;;5036864;28;20041;-65
2023/01/07 02:36:54;;;;;;;3.73;1.03;;;22.30;94.10;;;;;;5036570;28;20022;-64
2023/01/07 02:39:36;;;;;;;10.10;1.23;;;22.40;94.30;;;;;;5037834;28;20034;-64
2023/01/07 02:42:12;;;;;;;8.50;1.48;;;22.80;94.70;;;;;;5037615;28;20021;-65
2023/01/07 02:45:08;;;;;;;5.07;1.02;;;23.30;93.40;;;;;;5033378;28;20401;-65
2023/01/07 02:47:46;;;;;;;5.03;1.02;;;23.70;93.10;;;;;;5035559;28;20022;-65
2023/01/07 02:50:14;;;;;;;4.18;0.95;;;24.30;91.90;;;;;;5035512;28;20091;-65
2023/01/07 02:52:41;;;;;;;4.65;1.13;;;24.60;89.30;;;;;;5038127;28;20113;-65
2023/01/07 02:55:33;;;;;;;9.27;1.70;;;24.90;90.00;;;;;;5039620;28;20025;-66
2023/01/07 02:58:19;;;;;;;8.55;1.00;;;25.10;84.50;;;;;;5040700;28;20104;-65
2023/01/07 03:01:12;;;;;;;8.05;1.33;;;25.00;82.00;;;;;;5038557;28;20457;-69
2023/01/07 03:03:53;;;;;;;4.20;0.60;;;24.90;81.30;;;;;;5039043;28;20040;-66
2023/01/07 03:06:36;;;;;;;4.15;1.20;;;24.90;82.50;;;;;;5045532;28;20026;-62
2023/01/07 03:09:22;;;;;;;6.57;1.38;;;24.90;83.10;;;;;;5040177;28;20037;-64
2023/01/07 03:12:00;;;;;;;6.47;0.90;;;25.20;82.60;;;;;;5041710;28;20039;-68
2023/01/07 03:14:43;;;;;;;5.75;1.08;;;24.90;80.90;;;;;;5038358;28;20100;-67
2023/01/07 03:17:21;;;;;;;6.22;1.45;;;24.60;81.70;;;;;;5039171;28;20014;-66
2023/01/07 03:19:56;;;;;;;3.95;0.90;;;24.70;82.80;;;;;;5038961;28;20055;-66
2023/01/07 03:22:27;;;;;;;4.93;1.00;;;24.80;79.70;;;;;;5037330;28;20052;-65
2023/01/07 03:24:57;;;;;;;5.60;1.00;;;24.90;82.00;;;;;;5039868;28;20052;-66
2023/01/07 03:27:28;;;;;;;4.82;0.75;;;25.20;79.80;;;;;;5041369;28;20017;-66
2023/01/07 03:29:55;;;;;;;4.00;0.93;;;24.90;79.40;;;;;;5039824;28;20505;-65
2023/01/07 03:32:57;;;;;;;4.28;0.80;;;24.90;78.30;;;;;;5042695;28;20048;-66
2023/01/07 03:35:25;;;;;;;4.07;1.00;;;25.20;77.30;;;;;;5041510;28;20111;-66
2023/01/07 03:37:53;;;;;;;6.07;1.00;;;25.20;78.00;;;;;;5039373;28;20030;-65
2023/01/07 03:40:21;;;;;;;4.55;0.90;;;25.30;76.00;;;;;;5040010;28;20096;-65
2023/01/07 03:42:49;;;;;;;7.65;1.48;;;25.20;77.70;;;;;;5046623;28;20039;-65
2023/01/07 03:45:20;;;;;;;3.78;0.80;;;25.60;76.30;;;;;;5049384;28;20088;-65
2023/01/07 03:47:49;;;;;;;3.53;1.38;;;25.60;73.50;;;;;;5052420;28;20390;-65
2023/01/07 03:50:18;;;;;;;5.05;0.90;;;26.10;73.50;;;;;;5049608;28;20132;-65
2023/01/07 03:52:47;;;;;;;5.70;0.80;;;26.30;67.90;;;;;;5030438;28;20080;-66
2023/01/07 03:55:14;;;;;;;3.17;1.25;;;26.20;68.40;;;;;;5029948;28;20037;-66
2023/01/07 03:57:41;;;;;;;3.05;0.60;;;26.10;66.20;;;;;;5038355;28;20027;-65
2023/01/07 04:00:15;;;;;;;5.05;0.70;;;25.90;67.10;;;;;;5050165;28;20068;-67
2023/01/07 04:02:43;;;;;;;5.75;0.88;;;25.90;68.90;;;;;;5055434;28;20390;-65
2023/01/07 04:05:11;;;;;;;4.47;0.80;;;26.10;65.40;;;;;;5051243;28;20021;-66
2023/01/07 04:07:38;;;;;;;14.57;1.60;;;26.30;67.70;;;;;;5045116;28;20036;-65
2023/01/07 04:10:10;;;;;;;4.05;0.85;;;26.20;66.70;;;;;;5030657;28;20040;-65
2023/01/07 04:12:37;;;;;;;5.10;0.73;;;26.30;68.00;;;;;;5030749;28;20509;-66
2023/01/07 04:15:08;;;;;;;3.95;0.88;;;26.30;66.00;;;;;;5049724;28;20083;-66
2023/01/07 04:17:38;;;;;;;3.30;0.80;;;26.10;67.40;;;;;;5052915;28;20024;-66
2023/01/07 04:20:09;;;;;;;5.45;1.25;;;26.30;66.60;;;;;;5067021;28;20028;-65
2023/01/07 04:22:39;;;;;;;2.83;0.95;;;26.10;66.70;;;;;;5042530;28;20026;-65
2023/01/07 04:25:06;;;;;;;2.45;0.57;;;26.20;66.50;;;;;;5040250;28;20027;-66
2023/01/07 04:27:34;;;;;;;4.28;0.90;;;26.60;66.90;;;;;;5038163;28;20028;-64
2023/01/07 04:30:01;;;;;;;3.20;0.70;;;26.50;65.10;;;;;;5040358;28;20028;-65
2023/01/07 04:32:31;;;;;;;2.50;0.63;;;26.40;66.40;;;;;;5038969;28;20029;-65
2023/01/07 04:35:01;;;;;;;5.05;1.00;;;26.40;67.10;;;;;;5039677;28;20014;-64
2023/01/07 04:37:28;;;;;;;4.82;0.90;;;26.50;63.40;;;;;;5039533;28;20117;-65
2023/01/07 04:39:58;;;;;;;3.97;1.23;;;26.50;64.90;;;;;;5039423;28;20053;-64
2023/01/07 04:42:32;;;;;;;4.60;1.00;;;26.20;65.40;;;;;;5038141;28;20025;-65
2023/01/07 04:44:59;;;;;;;6.68;1.20;;;26.00;66.30;;;;;;5037976;28;20025;-66
2023/01/07 04:47:26;;;;;;;8.02;1.48;;;25.50;67.60;;;;;;5037951;28;20021;-67
2023/01/07 04:49:53;;;;;;;7.68;1.10;;;25.50;70.10;;;;;;5042944;28;20029;-66
2023/01/07 04:52:20;;;;;;;4.07;1.45;;;25.40;67.90;;;;;;5036888;28;20024;-63
2023/01/07 04:54:48;;;;;;;4.13;1.15;;;25.20;69.20;;;;;;5038642;28;20025;-63
2023/01/07 04:57:15;;;;;;;6.43;1.20;;;25.20;73.10;;;;;;5036940;28;20025;-63
2023/01/07 04:59:42;;;;;;;8.00;1.50;;;25.20;72.60;;;;;;5034626;28;20409;-63
2023/01/07 05:02:09;;;;;;;5.00;1.42;;;25.10;75.50;;;;;;5033536;28;20040;-67
2023/01/07 05:04:37;;;;;;;10.95;2.15;;;24.80;75.50;;;;;;5031423;28;20044;-66
2023/01/07 05:07:04;;;;;;;6.00;1.38;;;24.70;77.30;;;;;;5044000;28;20083;-67
2023/01/07 05:09:31;;;;;;;6.90;1.52;;;24.20;80.90;;;;;;5045446;28;20049;-66
2023/01/07 05:11:58;;;;;;;10.68;2.50;;;23.90;83.60;;;;;;5044614;28;20036;-67
2023/01/07 05:14:26;;;;;;;12.57;2.10;;;23.70;87.10;;;;;;5033984;28;20378;-69
2023/01/07 05:16:53;;;;;;;9.23;2.20;;;23.20;90.20;;;;;;5035317;28;20025;-68
2023/01/07 05:19:20;;;;;;;15.63;6.75;;;22.80;92.00;;;;;;5036857;28;20051;-68
2023/01/07 05:21:48;;;;;;;12.05;4.80;;;22.70;93.00;;;;;;5037544;28;20029;-69
2023/01/07 05:24:15;;;;;;;7.30;1.90;;;22.80;93.00;;;;;;5034539;28;20025;-69
2023/01/07 05:26:42;;;;;;;6.75;1.35;;;22.50;93.00;;;;;;5037764;28;20030;-69
2023/01/07 05:29:10;;;;;;;12.90;4.35;;;22.40;93.90;;;;;;5034264;28;20034;-69
2023/01/07 05:31:37;;;;;;;8.57;2.13;;;22.50;93.90;;;;;;5039239;28;20035;-68
2023/01/07 05:34:04;;;;;;;6.25;1.73;;;22.40;93.50;;;;;;5041816;28;20366;-69
2023/01/07 05:36:34;;;;;;;10.23;2.22;;;22.40;94.00;;;;;;5039677;28;20032;-69
2023/01/07 05:39:02;;;;;;;4.32;1.05;;;22.30;93.50;;;;;;5035667;28;20032;-67
2023/01/07 05:41:29;;;;;;;8.63;1.65;;;22.40;93.70;;;;;;5037593;28;20502;-70
2023/01/07 05:43:56;;;;;;;7.85;1.70;;;22.50;93.50;;;;;;5049129;28;20032;-68
2023/01/07 05:46:23;;;;;;;6.82;1.70;;;22.50;93.00;;;;;;5041423;28;20037;-69
2023/01/07 05:48:53;;;;;;;9.90;1.50;;;22.60;92.80;;;;;;5037913;28;20037;-69
2023/01/07 05:51:20;;;;;;;5.47;1.35;;;22.70;92.50;;;;;;5039074;28;20045;-68
2023/01/07 05:53:47;;;;;;;8.10;1.20;;;22.70;92.60;;;;;;5034890;28;20022;-70
2023/01/07 05:56:15;;;;;;;6.28;1.83;;;22.70;92.30;;;;;;5037845;28;20499;-70
2023/01/07 05:58:42;;;;;;;5.57;2.00;;;22.50;93.20;;;;;;5044301;28;20033;-71
2023/01/07 06:01:09;;;;;;;8.70;1.48;;;22.60;93.20;;;;;;5044305;28;20504;-73
2023/01/07 06:03:37;;;;;;;5.28;1.38;;;22.50;93.30;;;;;;5034528;28;20025;-69
2023/01/07 06:06:06;;;;;;;9.90;1.98;;;22.50;93.40;;;;;;5038564;28;20517;-69
2023/01/07 06:08:34;;;;;;;7.82;1.40;;;22.40;93.80;;;;;;5043065;28;20033;-67
2023/01/07 06:11:02;;;;;;;6.80;1.25;;;22.20;94.40;;;;;;5033215;28;20040;-68
2023/01/07 06:13:29;;;;;;;5.80;1.45;;;22.10;95.00;;;;;;5041385;28;20021;-72
2023/01/07 06:16:15;;;;;;;6.45;1.45;;;22.00;96.00;;;;;;5038258;28;20106;-68
2023/01/07 06:18:42;;;;;;;6.38;1.00;;;21.90;95.30;;;;;;5035646;28;20025;-70
2023/01/07 06:21:09;;;;;;;12.35;1.88;;;21.80;95.80;;;;;;5036577;28;20449;-69
2023/01/07 06:23:36;;;;;;;10.70;1.52;;;21.80;96.30;;;;;;5036559;28;20021;-68
2023/01/07 06:26:04;;;;;;;6.80;1.95;;;21.90;96.50;;;;;;5037898;28;20030;-66
2023/01/07 06:28:31;;;;;;;6.32;1.25;;;22.00;96.10;;;;;;5036974;28;20097;-64
2023/01/07 06:30:58;;;;;;;6.50;1.73;;;21.90;96.00;;;;;;5041590;28;20486;-66
2023/01/07 06:33:26;;;;;;;12.70;1.98;;;21.90;96.50;;;;;;5040406;28;20021;-65
2023/01/07 06:35:53;;;;;;;9.35;1.90;;;21.80;96.60;;;;;;5041310;28;20025;-65
2023/01/07 06:38:20;;;;;;;6.40;1.35;;;21.80;96.70;;;;;;5042592;28;20025;-65
2023/01/07 06:40:47;;;;;;;5.55;1.08;;;21.90;96.60;;;;;;5041511;28;20086;-64
2023/01/07 06:43:14;;;;;;;6.47;1.25;;;21.80;97.10;;;;;;5041645;28;20389;-65
2023/01/07 06:45:42;;;;;;;7.28;1.13;;;21.60;97.00;;;;;;5040000;28;20034;-65
2023/01/07 06:48:09;;;;;;;8.57;1.50;;;21.40;97.70;;;;;;5041207;28;20013;-66
2023/01/07 06:50:36;;;;;;;5.97;1.00;;;21.40;98.30;;;;;;5040911;28;20095;-66
2023/01/07 06:53:04;;;;;;;5.38;1.02;;;21.40;97.90;;;;;;5040213;28;20024;-66
2023/01/07 06:55:34;;;;;;;5.65;1.25;;;21.40;98.90;;;;;;5041015;28;20109;-65
2023/01/07 06:58:01;;;;;;;4.68;1.10;;;21.60;98.30;;;;;;5041256;28;20108;-65
2023/01/07 07:00:29;;;;;;;10.15;1.27;;;21.50;97.90;;;;;;5039356;28;20032;-67
2023/01/07 07:02:56;;;;;;;3.45;0.77;;;21.50;98.30;;;;;;5038365;28;20457;-66
2023/01/07 07:05:23;;;;;;;11.65;2.05;;;21.40;98.10;;;;;;5039405;28;20029;-74
2023/01/07 07:07:51;;;;;;;4.47;1.60;;;21.40;97.70;;;;;;5036024;28;20033;-69
2023/01/07 07:10:18;;;;;;;4.38;1.05;;;21.30;98.10;;;;;;5036466;28;20045;-65
2023/01/07 07:12:46;;;;;;;9.35;2.03;;;21.30;98.10;;;;;;5042639;28;20478;-67
2023/01/07 07:15:16;;;;;;;8.85;1.13;;;21.10;98.70;;;;;;5036140;28;20065;-69
2023/01/07 07:17:46;;;;;;;7.43;1.33;;;21.00;98.90;;;;;;5030037;28;20018;-68
2023/01/07 07:20:13;;;;;;;5.97;0.93;;;20.90;98.90;;;;;;5031579;28;20044;-69
2023/01/07 07:22:48;;;;;;;7.72;1.15;;;20.90;98.90;;;;;;5037203;28;20382;-68
2023/01/07 07:25:15;;;;;;;;;;;20.80;99.90;;;;;;5049942;28;20025;-68
2023/01/07 07:27:45;;;;;;;5.57;1.25;;;20.80;99.90;;;;;;5049076;28;19908;-70
2023/01/07 07:30:14;;;;;;;6.35;1.17;;;20.80;99.90;;;;;;5048858;28;20432;-69
2023/01/07 07:32:45;;;;;;;3.67;0.68;;;20.80;99.90;;;;;;5050185;28;20017;-70
2023/01/07 07:35:13;;;;;;;6.75;1.27;;;20.70;99.90;;;;;;5045899;28;20036;-68
2023/01/07 07:37:40;;;;;;;9.50;1.95;;;20.60;99.90;;;;;;5031337;28;20048;-67
2023/01/07 07:40:08;;;;;;;10.02;1.40;;;20.60;99.90;;;;;;5043402;28;20122;-68
2023/01/07 07:42:37;;;;;;;4.97;0.80;;;20.70;99.90;;;;;;5035346;28;20021;-69
2023/01/07 07:45:06;;;;;;;7.25;1.23;;;20.60;99.90;;;;;;5035822;28;20025;-67
2023/01/07 07:47:33;;;;;;;8.88;2.05;;;20.50;99.90;;;;;;5037933;28;20474;-69
2023/01/07 07:50:04;;;;;;;10.88;1.38;;;20.40;99.90;;;;;;5036038;28;20494;-70
2023/01/07 07:52:31;;;;;;;6.53;1.77;;;20.30;99.90;;;;;;5044583;28;20197;-69
2023/01/07 07:54:58;;;;;;;8.48;1.00;;;20.20;99.90;;;;;;5033055;28;20717;-69
2023/01/07 07:57:26;;;;;;;6.88;1.08;;;20.20;99.90;;;;;;5030249;28;20033;-65
2023/01/07 07:59:53;;;;;;;8.30;2.00;;;20.20;99.90;;;;;;5047151;28;20025;-69
2023/01/07 08:02:20;;;;;;;5.55;1.08;;;20.10;99.90;;;;;;5032405;28;20082;-68
2023/01/07 08:04:51;;;;;;;9.88;1.40;;;20.10;99.90;;;;;;5037642;28;20029;-69
2023/01/07 08:07:19;;;;;;;16.75;1.55;;;20.10;99.90;;;;;;5029713;28;20030;-68
2023/01/07 08:09:46;;;;;;;5.63;1.25;;;20.00;99.90;;;;;;5041360;28;20013;-69
2023/01/07 08:12:14;;;;;;;6.72;1.73;;;20.00;99.90;;;;;;5034523;28;20117;-70
2023/01/07 08:14:41;;;;;;;6.20;1.05;;;19.90;99.90;;;;;;5035592;28;20029;-69
2023/01/07 08:17:12;;;;;;;6.70;1.35;;;19.80;99.90;;;;;;5040626;28;20107;-68
2023/01/07 08:19:39;;;;;;;8.80;1.45;;;19.70;99.90;;;;;;5048684;28;20037;-69
2023/01/07 08:22:10;;;;;;;3.90;1.00;;;19.60;99.90;;;;;;5038364;28;20039;-71
2023/01/07 08:24:40;;;;;;;5.78;1.30;;;19.60;99.90;;;;;;5030928;28;20017;-69
2023/01/07 08:27:07;;;;;;;5.97;1.00;;;19.60;99.90;;;;;;5040805;28;20129;-71
2023/01/07 08:29:37;;;;;;;3.55;0.80;;;19.50;99.90;;;;;;5043425;28;20363;-72
2023/01/07 08:32:05;;;;;;;3.47;0.90;;;19.50;99.90;;;;;;5039770;28;20037;-71
2023/01/07 08:34:35;;;;;;;11.15;2.08;;;19.40;99.90;;;;;;5036733;28;20021;-69
2023/01/07 08:37:06;;;;;;;4.20;1.58;;;19.40;99.90;;;;;;5047390;28;20029;-71
2023/01/07 08:39:36;;;;;;;1.98;0.70;;;19.40;99.90;;;;;;5033066;28;20025;-69
2023/01/07 08:42:13;;;;;;;9.15;1.30;;;19.40;99.90;;;;;;5034200;28;20520;-69
2023/01/07 08:44:43;;;;;;;4.47;1.00;;;19.40;99.90;;;;;;5033266;28;20124;-72
2023/01/07 08:47:11;;;;;;;4.00;0.75;;;19.40;99.90;;;;;;5031401;28;20025;-72
2023/01/07 08:49:44;;;;;;;5.20;1.02;;;19.30;99.90;;;;;;5031409;28;20091;-72
2023/01/07 08:52:11;;;;;;;2.90;1.02;;;19.30;99.90;;;;;;5030282;28;20498;-71
2023/01/07 08:54:39;;;;;;;3.35;0.93;;;19.20;99.90;;;;;;5025882;28;20022;-70
2023/01/07 08:57:06;;;;;;;16.02;1.58;;;19.20;99.90;;;;;;5026409;28;20076;-70
2023/01/07 08:59:33;;;;;;;4.40;1.30;;;19.20;99.90;;;;;;5033280;28;20032;-68
2023/01/07 09:02:02;;;;;;;7.28;1.73;;;19.10;99.90;;;;;;5041456;28;20090;-69
2023/01/07 09:04:29;;;;;;;7.55;1.13;;;19.10;99.90;;;;;;5048040;28;20086;-70
2023/01/07 09:06:57;;;;;;;9.82;1.67;;;19.10;99.90;;;;;;5046186;28;20440;-70
2023/01/07 09:09:24;;;;;;;5.93;1.85;;;19.00;99.90;;;;;;5041964;28;20532;-71
2023/01/07 09:11:51;;;;;;;10.80;1.05;;;19.00;99.90;;;;;;5041003;28;20095;-69
2023/01/07 09:14:22;;;;;;;7.28;1.23;;;19.00;99.90;;;;;;5030156;28;20026;-69
2023/01/07 09:16:50;;;;;;;9.05;1.95;;;18.90;99.90;;;;;;5028673;28;20383;-70
2023/01/07 09:19:18;;;;;;;11.43;1.67;;;18.80;99.90;;;;;;5034963;28;20025;-72
2023/01/07 09:21:46;;;;;;;7.18;1.40;;;18.80;99.90;;;;;;5043245;28;20516;-69
2023/01/07 09:24:13;;;;;;;8.52;1.15;;;18.80;99.90;;;;;;5032726;28;20030;-71
2023/01/07 09:26:42;;;;;;;8.40;1.20;;;18.80;99.90;;;;;;5036372;28;20029;-72
2023/01/07 09:29:09;;;;;;;10.32;1.25;;;18.70;99.90;;;;;;5047231;28;20033;-69
2023/01/07 09:31:37;;;;;;;12.20;1.25;;;18.70;99.90;;;;;;5047651;28;20110;-70
2023/01/07 09:34:04;;;;;;;10.95;1.80;;;18.70;99.90;;;;;;5027112;28;20116;-69
2023/01/07 09:36:32;;;;;;;8.38;1.42;;;18.60;99.90;;;;;;5032912;28;20036;-68
2023/01/07 09:39:00;;;;;;;6.53;0.95;;;18.60;99.90;;;;;;5030330;28;20128;-71
2023/01/07 09:41:50;;;;;;;6.22;1.33;;;18.60;99.90;;;;;;5039510;28;20385;-69
2023/01/07 09:44:43;;;;;;;4.45;1.20;;;18.60;99.90;;;;;;5045165;28;20017;-65
2023/01/07 09:47:14;;;;;;;7.82;1.20;;;18.50;99.90;;;;;;5047346;28;20389;-66
2023/01/07 09:49:44;;;;;;;7.10;1.20;;;18.50;99.90;;;;;;5032809;28;20100;-65
2023/01/07 09:52:25;;;;;;;8.88;1.23;;;18.50;99.90;;;;;;5046512;28;20021;-65
2023/01/07 09:55:00;;;;;;;7.03;1.27;;;18.50;99.90;;;;;;5044336;28;20025;-66
2023/01/07 09:57:42;;;;;;;5.82;1.20;;;18.50;99.90;;;;;;5038588;28;20088;-70
2023/01/07 10:00:20;;;;;;;12.43;2.47;;;18.50;99.90;;;;;;5033716;28;20037;-65
2023/01/07 10:03:08;;;;;;;9.45;1.50;;;18.50;99.90;;;;;;5030863;28;20029;-65
2023/01/07 10:06:00;;;;;;;9.27;1.40;;;18.50;99.90;;;;;;5029610;28;20021;-64
2023/01/07 10:09:00;;;;;;;10.57;1.95;;;18.50;99.90;;;;;;5034878;28;20021;-65
2023/01/07 10:12:09;;;;;;;10.63;1.45;;;18.50;99.90;;;;;;5029904;28;20556;-68
2023/01/07 10:14:58;;;;;;;9.50;1.40;;;18.50;99.90;;;;;;5030692;28;20056;-69
2023/01/07 10:17:51;;;;;;;7.40;1.48;;;18.40;99.90;;;;;;5030742;28;20025;-67
2023/01/07 10:20:25;;;;;;;7.75;1.52;;;18.40;99.90;;;;;;5031596;28;20026;-70
2023/01/07 10:23:08;;;;;;;7.80;1.50;;;18.50;99.90;;;;;;5030247;28;20029;-71
2023/01/07 10:25:54;;;;;;;8.45;1.40;;;18.40;99.90;;;;;;5032309;28;20950;-70
2023/01/07 10:28:37;;;;;;;13.10;1.50;;;18.40;99.90;;;;;;5036752;28;20034;-70
2023/01/07 10:31:10;;;;;;;10.98;1.52;;;18.50;99.90;;;;;;5042230;28;20094;-64
2023/01/07 10:33:40;;;;;;;14.15;2.00;;;18.40;99.90;;;;;;5030823;28;20517;-70
2023/01/07 10:36:24;;;;;;;4.78;1.48;;;18.40;99.90;;;;;;5030503;28;20029;-70
2023/01/07 10:39:23;;;;;;;12.50;1.40;;;18.40;99.90;;;;;;5036054;28;20421;-69
2023/01/07 10:42:04;;;;;;;5.43;1.08;;;18.40;99.90;;;;;;5050361;28;20029;-70
2023/01/07 10:44:54;;;;;;;14.32;1.55;;;18.40;99.90;;;;;;5046754;28;20033;-70
2023/01/07 10:47:54;;;;;;;8.30;2.35;;;18.40;99.90;;;;;;5041719;28;20087;-68
2023/01/07 10:50:45;;;;;;;7.55;1.10;;;18.40;99.90;;;;;;5029884;28;20171;-69
2023/01/07 10:53:28;;;;;;;11.32;1.75;;;18.30;99.90;;;;;;5049744;28;20072;-70
2023/01/07 10:56:16;;;;;;;9.45;1.95;;;18.40;99.90;;;;;;5047140;28;20647;-69
2023/01/07 10:58:46;;;;;;;9.52;1.52;;;18.40;99.90;;;;;;5048793;28;20098;-69
2023/01/07 11:01:27;;;;;;;10.70;1.60;;;18.30;99.90;;;;;;5030416;28;20036;-70
2023/01/07 11:03:58;;;;;;;15.60;3.38;;;18.30;99.90;;;;;;5030080;28;20071;-70
2023/01/07 11:06:40;;;;;;;10.45;1.77;;;18.30;99.90;;;;;;5029851;28;20028;-70
2023/01/07 11:09:20;;;;;;;13.52;3.10;;;18.30;99.90;;;;;;5046491;28;20036;-70
2023/01/07 11:11:49;;;;;;;9.70;1.67;;;18.30;99.90;;;;;;5037425;28;20220;-69
2023/01/07 11:14:26;;;;;;;10.60;2.17;;;18.30;99.90;;;;;;5042613;28;20104;-71
2023/01/07 11:17:23;;;;;;;13.80;1.65;;;18.30;99.90;;;;;;5049607;28;20032;-68
2023/01/07 11:19:51;;;;;;;8.13;1.40;;;18.20;99.90;;;;;;5040492;28;20425;-69
2023/01/07 11:22:38;;;;;;;8.23;2.17;;;18.20;99.90;;;;;;5043940;28;20112;-69
2023/01/07 11:25:24;;;;;;;9.57;2.08;;;18.20;99.90;;;;;;5037707;28;20022;-69
2023/01/07 11:27:51;;;;;;;10.60;3.67;;;18.30;99.90;;;;;;5030118;28;20045;-68
2023/01/07 11:30:34;;;;;;;10.25;1.70;;;18.20;99.90;;;;;;5046850;28;20058;-69
2023/01/07 11:33:06;;;;;;;12.25;3.00;;;18.30;99.90;;;;;;5049762;28;20078;-69
2023/01/07 11:35:34;;;;;;;8.57;1.83;;;18.30;99.90;;;;;;5049523;28;20748;-71
2023/01/07 11:38:25;;;;;;;6.70;1.88;;;18.20;99.90;;;;;;5034218;28;20059;-71
2023/01/07 11:41:00;;;;;;;5.45;1.52;;;18.20;99.90;;;;;;5029053;28;20045;-70
2023/01/07 11:43:38;;;;;;;9.20;3.13;;;18.20;99.90;;;;;;5029132;28;20043;-69
2023/01/07 11:46:16;;;;;;;7.63;2.05;;;18.20;99.90;;;;;;5044449;28;20044;-69
2023/01/07 11:48:56;;;;;;;8.85;2.45;;;18.20;99.90;;;;;;5036073;28;20021;-70
2023/01/07 11:51:23;;;;;;;7.03;1.73;;;18.20;99.90;;;;;;5040920;28;20099;-69
2023/01/07 11:53:55;;;;;;;7.30;1.45;;;18.20;99.90;;;;;;5048764;28;20024;-71
2023/01/07 11:56:33;;;;;;;8.10;1.75;;;18.10;99.90;;;;;;5043374;28;20039;-69
2023/01/07 11:59:21;;;;;;;6.80;1.70;;;18.10;99.90;;;;;;5037826;28;20116;-71
2023/01/07 12:01:51;;;;;;;8.80;2.65;;;18.10;99.90;;;;;;5031262;28;20390;-69
2023/01/07 12:04:25;;;;;;;12.80;2.53;;;18.10;99.90;;;;;;5033717;28;20490;-70
2023/01/07 12:07:00;;;;;;;10.02;1.70;;;18.10;99.90;;;;;;5034144;28;20505;-70
2023/01/07 12:09:36;;;;;;;5.25;1.23;;;18.10;99.90;;;;;;5027219;28;20038;-71
2023/01/07 12:12:33;;;;;;;7.88;1.70;;;18.10;99.90;;;;;;5045687;28;20409;-69
2023/01/07 12:15:25;;;;;;;14.35;1.50;;;18.10;99.90;;;;;;5057796;28;20486;-70
2023/01/07 12:18:19;;;;;;;7.80;1.63;;;18.00;99.90;;;;;;5044029;28;20047;-69
2023/01/07 12:21:07;;;;;;;13.88;1.60;;;18.00;99.90;;;;;;5031817;28;20037;-69
2023/01/07 12:23:59;;;;;;;11.00;1.42;;;18.00;99.90;;;;;;5035587;28;20028;-69
2023/01/07 12:26:38;;;;;;;7.32;1.67;;;18.00;99.90;;;;;;5040468;28;20064;-68
2023/01/07 12:29:11;;;;;;;12.73;1.80;;;18.00;99.90;;;;;;5048318;28;20112;-67
2023/01/07 12:32:08;;;;;;;6.18;1.13;;;18.00;99.90;;;;;;5037230;28;20078;-69
2023/01/07 12:34:38;;;;;;;9.23;1.92;;;18.00;99.90;;;;;;5041454;28;20137;-66
2023/01/07 12:37:48;;;;;;;8.75;1.35;;;18.00;99.90;;;;;;5037385;28;20029;-69
2023/01/07 12:40:15;;;;;;;5.18;1.55;;;17.90;99.90;;;;;;5025308;28;20030;-68
2023/01/07 12:42:54;;;;;;;9.38;1.42;;;17.90;99.90;;;;;;5028622;28;20142;-70
2023/01/07 12:56:25;;;;;;;7.15;1.38;;;17.90;99.90;;;;;;5085581;27;20430;-72
2023/01/07 12:58:59;;;;;;;6.93;2.10;;;17.90;99.90;;;;;;5088976;28;20044;-71
2023/01/07 13:01:52;;;;;;;2.95;1.83;;;17.90;99.90;;;;;;5077320;28;20039;-72
2023/01/07 13:05:01;;;;;;;4.82;1.30;;;17.90;99.90;;;;;;5084760;28;20028;-71
2023/01/07 13:08:00;;;;;;;10.85;2.05;;;17.90;99.90;;;;;;5064728;28;20489;-69
2023/01/07 13:10:47;;;;;;;3.65;1.05;;;17.90;99.90;;;;;;5066011;28;20017;-71
2023/01/07 13:13:40;;;;;;;7.18;1.70;;;17.90;99.90;;;;;;5084874;28;20071;-72
2023/01/07 13:16:16;;;;;;;5.93;1.38;;;17.90;99.90;;;;;;5088097;28;20059;-70
2023/01/07 13:18:43;;;;;;;8.68;1.52;;;17.90;99.90;;;;;;5091885;28;20063;-71
2023/01/07 13:21:13;;;;;;;6.93;1.95;;;17.90;99.90;;;;;;5095369;28;20024;-71
2023/01/07 13:24:09;;;;;;;7.85;1.63;;;17.90;99.90;;;;;;5096479;28;20050;-71
2023/01/07 13:26:43;;;;;;;12.57;1.90;;;17.90;99.90;;;;;;5088981;28;20119;-71
2023/01/07 13:29:44;;;;;;;11.18;1.60;;;17.90;99.90;;;;;;5082460;28;20107;-71
2023/01/07 13:32:52;;;;;;;7.03;1.50;;;17.90;99.90;;;;;;5085715;28;20076;-71